Cornville, Arizona
Current Conditions -  °F | °C
As of 7:35 AM on Thursday 23 Oct 2014 (Local Time) from KSEZ Reporting Station
Clear Clear  
Wind Chill: 59°   Ceiling: Unl
Heat Index: 59°   Visibility: 10mi
Dew Point: 37°   Wind: 9mph
Humidity: 45%   Direction: 40°NE
Pressure: 30.23"   Gusts: NA
Location:  34.72°N, 111.92°W
Report Text: KSEZ 231435Z AUTO 04008KT 10SM CLR 15/03 A3023 RMK AO2
Loading
Personal Weather Stations






























Interactive Weather Map
Tropical Storm Tracking
New forecast layout! Learn more

10-Day Weather Forecast

Advertisements
Track Severe Weather on mobile